createdAt,value
2019-05-16T00:02:28.476Z,70.93
2019-05-16T00:05:50.053Z,72.97
2019-05-16T00:08:48.057Z,70.58
2019-05-16T00:11:58.107Z,70.87
2019-05-16T00:15:08.737Z,72.08
2019-05-16T00:18:17.863Z,71.22
2019-05-16T00:21:28.150Z,72.10
2019-05-16T00:24:35.522Z,73.70
2019-05-16T00:27:43.869Z,74.50
2019-05-16T00:30:53.449Z,74.50
2019-05-16T00:34:01.386Z,72.75
2019-05-16T00:37:09.554Z,72.39
2019-05-16T00:40:18.898Z,72.29
2019-05-16T00:43:28.893Z,72.29
2019-05-16T00:46:38.561Z,71.89
2019-05-16T00:49:48.054Z,72.54
2019-05-16T00:52:58.706Z,72.34
2019-05-16T00:56:07.919Z,72.60
2019-05-16T00:59:18.338Z,72.01
2019-05-16T01:02:28.677Z,72.09
2019-05-16T01:05:38.760Z,72.09
2019-05-16T01:08:48.580Z,72.06
2019-05-16T01:11:57.948Z,72.41
2019-05-16T01:15:07.741Z,71.21
2019-05-16T01:18:15.534Z,71.37
2019-05-16T01:21:23.568Z,71.56
2019-05-16T01:24:31.674Z,71.77
2019-05-16T01:27:39.524Z,71.77
2019-05-16T01:30:48.913Z,72.28
2019-05-16T01:33:58.399Z,72.28
2019-05-16T01:37:08.271Z,72.31
2019-05-16T01:40:18.951Z,72.14
2019-05-16T01:43:28.394Z,72.56
2019-05-16T01:46:38.868Z,71.70
2019-05-16T01:49:48.562Z,71.70
2019-05-16T01:52:57.900Z,71.58
2019-05-16T01:56:05.633Z,71.36
2019-05-16T01:59:13.545Z,71.98
2019-05-16T02:02:21.501Z,73.14
2019-05-16T02:05:29.537Z,73.14
2019-05-16T02:08:38.059Z,73.34
2019-05-16T02:11:48.137Z,73.34
2019-05-16T02:14:58.572Z,72.31
2019-05-16T02:18:08.136Z,72.52
2019-05-16T02:21:18.043Z,74.68
2019-05-16T02:24:24.483Z,74.68
2019-05-16T02:27:32.359Z,74.47
2019-05-16T02:31:01.345Z,74.46
2019-05-16T02:34:11.919Z,74.58
2019-05-16T02:37:29.249Z,76.27
2019-05-16T02:40:32.242Z,77.28
2019-05-16T02:44:01.229Z,74.22
2019-05-16T02:47:10.811Z,73.78
2019-05-16T02:50:18.249Z,73.78
2019-05-16T02:53:30.941Z,74.92
2019-05-16T02:56:41.439Z,73.99
2019-05-16T02:59:50.890Z,73.59
2019-05-16T03:03:01.147Z,75.79
2019-05-16T03:06:11.202Z,76.40
2019-05-16T03:09:22.243Z,74.33
2019-05-16T03:12:31.101Z,76.24
2019-05-16T03:15:40.753Z,76.80
2019-05-16T03:18:47.594Z,77.60
2019-05-16T03:21:56.242Z,75.05
2019-05-16T03:25:04.555Z,75.05
2019-05-16T03:28:14.945Z,75.40
2019-05-16T03:31:25.455Z,75.40
2019-05-16T03:34:34.669Z,74.43
2019-05-16T03:37:54.967Z,74.43
2019-05-16T03:41:12.266Z,77.31
2019-05-16T03:44:21.122Z,75.40
2019-05-16T03:47:31.277Z,75.99
2019-05-16T03:50:41.243Z,77.87
2019-05-16T03:53:50.711Z,73.53
2019-05-16T03:57:00.669Z,73.35
2019-05-16T04:00:11.810Z,72.39
2019-05-16T04:03:21.270Z,71.86
2019-05-16T04:06:31.138Z,70.91
2019-05-16T04:09:41.194Z,71.76
2019-05-16T04:12:51.139Z,72.21
2019-05-16T04:16:01.393Z,74.79
2019-05-16T04:19:11.589Z,78.65
2019-05-16T04:22:21.464Z,79.58
2019-05-16T04:25:31.120Z,80.18
2019-05-16T04:28:41.335Z,81.10
2019-05-16T04:31:50.851Z,81.38
2019-05-16T04:35:02.477Z,82.41
2019-05-16T04:38:11.306Z,82.10
2019-05-16T04:41:21.246Z,82.23
2019-05-16T04:44:30.946Z,82.23
2019-05-16T04:47:41.393Z,83.47
2019-05-16T04:50:51.682Z,82.37
2019-05-16T04:54:01.743Z,82.48
2019-05-16T04:57:07.873Z,83.15
2019-05-16T05:00:21.139Z,82.49
2019-05-16T05:03:31.521Z,82.50
2019-05-16T05:06:40.573Z,82.06
2019-05-16T05:09:51.167Z,80.88
2019-05-16T05:13:01.394Z,81.01
2019-05-16T05:16:10.641Z,80.75
2019-05-16T05:19:20.257Z,80.02
2019-05-16T05:22:30.450Z,79.36
2019-05-16T05:25:40.507Z,78.73
2019-05-16T05:28:50.591Z,78.32
2019-05-16T05:32:03.950Z,77.20
2019-05-16T05:35:10.530Z,73.11
2019-05-16T05:38:21.362Z,73.89
2019-05-16T05:41:30.219Z,72.92
2019-05-16T05:44:37.418Z,74.65
2019-05-16T05:47:45.531Z,74.77
2019-05-16T05:50:53.675Z,70.95
2019-05-16T05:54:01.546Z,70.95
2019-05-16T05:57:09.900Z,71.48
2019-05-16T06:00:21.074Z,71.48
2019-05-16T06:03:32.349Z,71.37
2019-05-16T06:06:41.755Z,68.85
2019-05-16T06:09:55.407Z,71.85
2019-05-16T06:13:00.648Z,72.65
2019-05-16T06:16:10.561Z,68.06
2019-05-16T06:19:20.062Z,69.18
2019-05-16T06:22:29.810Z,66.32
2019-05-16T06:25:40.423Z,69.17
2019-05-16T06:28:50.488Z,69.80
2019-05-16T06:32:00.199Z,69.80
2019-05-16T06:35:09.762Z,70.13
2019-05-16T06:38:20.827Z,67.04
2019-05-16T06:41:30.429Z,67.90
2019-05-16T06:44:40.160Z,65.40
2019-05-16T06:47:50.227Z,64.74
2019-05-16T06:51:02.530Z,67.13
2019-05-16T06:54:09.927Z,65.80
2019-05-16T06:57:17.408Z,66.01
2019-05-16T07:00:24.446Z,66.01
2019-05-16T07:03:32.553Z,66.55
2019-05-16T07:06:54.922Z,67.14
2019-05-16T07:09:59.939Z,67.14
2019-05-16T07:13:00.828Z,65.88
2019-05-16T07:16:09.745Z,69.37
2019-05-16T07:19:17.833Z,67.56
2019-05-16T07:22:25.909Z,67.01
2019-05-16T07:25:34.619Z,67.78
2019-05-16T07:28:43.039Z,65.58
2019-05-16T07:31:52.428Z,65.58
2019-05-16T07:35:00.685Z,64.03
2019-05-16T07:38:10.748Z,66.21
2019-05-16T07:41:20.466Z,63.96
2019-05-16T07:44:30.945Z,63.80
2019-05-16T07:47:40.368Z,62.90
2019-05-16T07:50:50.082Z,63.72
2019-05-16T07:53:59.757Z,63.72
2019-05-16T07:57:18.933Z,62.41
2019-05-16T08:00:17.732Z,64.61
2019-05-16T08:03:25.550Z,62.59
2019-05-16T08:06:34.267Z,61.39
2019-05-16T08:09:42.934Z,61.39
2019-05-16T08:12:51.569Z,63.47
2019-05-16T08:16:01.151Z,61.54
2019-05-16T08:19:10.774Z,63.42
2019-05-16T08:22:18.564Z,63.42
2019-05-16T08:25:26.586Z,64.38
2019-05-16T08:28:34.589Z,66.59
2019-05-16T08:31:43.233Z,65.01
2019-05-16T08:34:51.625Z,65.01
2019-05-16T08:38:01.098Z,65.00
2019-05-16T08:41:16.175Z,65.40
2019-05-16T08:44:21.501Z,67.10
2019-05-16T08:47:32.140Z,67.79
2019-05-16T08:50:42.081Z,68.35
2019-05-16T08:53:50.444Z,68.35
2019-05-16T08:57:17.152Z,66.81
2019-05-16T09:00:14.742Z,67.30
2019-05-16T09:03:22.163Z,67.60
2019-05-16T09:06:32.024Z,65.61
2019-05-16T09:09:49.499Z,65.82
2019-05-16T09:12:53.280Z,64.38
2019-05-16T09:16:01.487Z,64.69
2019-05-16T09:19:09.692Z,66.19
2019-05-16T09:22:18.657Z,66.19
2019-05-16T09:25:31.751Z,66.13
2019-05-16T09:28:42.262Z,68.26
2019-05-16T09:32:08.035Z,66.17
2019-05-16T09:34:59.928Z,65.41
2019-05-16T09:38:08.254Z,65.57
2019-05-16T09:41:19.368Z,66.26
2019-05-16T09:44:27.618Z,66.44
2019-05-16T09:47:38.789Z,66.50
2019-05-16T09:50:46.913Z,67.54
2019-05-16T09:53:56.743Z,67.28
2019-05-16T09:57:06.564Z,67.69
2019-05-16T10:00:17.973Z,69.54
2019-05-16T10:03:27.413Z,70.71
2019-05-16T10:06:37.192Z,70.71
2019-05-16T10:09:49.736Z,72.01
2019-05-16T10:12:54.608Z,72.50
2019-05-16T10:16:02.580Z,74.01
2019-05-16T10:19:10.730Z,73.38
2019-05-16T10:22:20.038Z,73.38
2019-05-16T10:25:28.045Z,74.60
2019-05-16T10:28:38.382Z,75.31
2019-05-16T10:31:52.926Z,74.98
2019-05-16T10:34:57.215Z,74.98
2019-05-16T10:38:05.597Z,75.17
2019-05-16T10:41:13.915Z,73.55
2019-05-16T10:44:21.834Z,74.95
2019-05-16T10:47:31.350Z,74.51
2019-05-16T10:50:39.606Z,76.09
2019-05-16T10:54:13.107Z,73.92
2019-05-16T10:56:57.793Z,75.33
2019-05-16T11:00:16.486Z,76.19
2019-05-16T11:03:17.190Z,75.39
2019-05-16T11:06:29.244Z,77.36
2019-05-16T11:09:39.086Z,77.22
2019-05-16T11:12:51.807Z,76.99
2019-05-16T11:15:55.959Z,76.48
2019-05-16T11:19:14.409Z,75.87
2019-05-16T11:22:13.508Z,77.03
2019-05-16T11:25:28.728Z,76.44
2019-05-16T11:28:31.741Z,75.18
2019-05-16T11:31:40.538Z,77.58
2019-05-16T11:34:48.561Z,77.37
2019-05-16T11:37:57.163Z,77.65
2019-05-16T11:41:07.403Z,77.65
2019-05-16T11:44:17.645Z,79.34
2019-05-16T11:47:27.192Z,78.55
2019-05-16T11:50:36.967Z,76.00
2019-05-16T11:53:43.580Z,76.29
2019-05-16T11:56:51.554Z,76.41
2019-05-16T11:59:59.557Z,78.85
2019-05-16T12:03:07.683Z,78.98
2019-05-16T12:06:17.151Z,78.98
2019-05-16T12:09:33.577Z,77.69
2019-05-16T12:12:37.117Z,77.76
2019-05-16T12:15:45.532Z,76.57
2019-05-16T12:18:57.082Z,78.80
2019-05-16T12:22:07.045Z,78.80
2019-05-16T12:25:16.809Z,76.79
2019-05-16T12:28:27.269Z,76.79
2019-05-16T12:31:37.408Z,77.84
2019-05-16T12:34:46.342Z,78.20
2019-05-16T12:37:57.034Z,77.59
2019-05-16T12:41:06.981Z,78.27
2019-05-16T12:44:16.145Z,76.67
2019-05-16T12:47:24.240Z,75.29
2019-05-16T12:50:32.317Z,77.06
2019-05-16T12:53:41.409Z,78.23
2019-05-16T12:56:49.920Z,80.40
2019-05-16T12:59:59.222Z,79.92
2019-05-16T13:03:07.537Z,80.46
2019-05-16T13:06:17.254Z,80.53
2019-05-16T13:09:26.669Z,80.53
2019-05-16T13:12:37.734Z,80.50
2019-05-16T13:15:47.286Z,79.75
2019-05-16T13:18:56.589Z,80.08
2019-05-16T13:22:04.228Z,79.33
2019-05-16T13:25:12.538Z,78.86
2019-05-16T13:28:20.649Z,78.59
2019-05-16T13:31:29.645Z,78.59
2019-05-16T13:34:38.141Z,76.12
2019-05-16T13:37:47.734Z,76.61
2019-05-16T13:40:58.524Z,76.42
2019-05-16T13:44:17.671Z,75.18
2019-05-16T13:47:17.337Z,75.18
2019-05-16T13:50:27.259Z,75.31
2019-05-16T13:53:36.851Z,74.47
2019-05-16T13:56:44.092Z,75.44
2019-05-16T13:59:52.692Z,76.59
2019-05-16T14:03:01.531Z,76.29
2019-05-16T14:06:12.249Z,77.46
2019-05-16T14:09:20.621Z,77.46
2019-05-16T14:12:28.777Z,79.35
2019-05-16T14:15:37.140Z,79.35
2019-05-16T14:18:47.480Z,77.87
2019-05-16T14:21:56.988Z,78.97
2019-05-16T14:25:07.175Z,78.51
2019-05-16T14:28:17.266Z,79.00
2019-05-16T14:31:25.020Z,80.13
2019-05-16T14:34:33.393Z,81.27
2019-05-16T14:37:40.423Z,82.24
2019-05-16T14:40:50.438Z,81.31
2019-05-16T14:43:58.781Z,81.52
2019-05-16T14:47:07.253Z,81.52
2019-05-16T14:50:17.058Z,81.88
2019-05-16T14:53:28.211Z,82.04
2019-05-16T14:56:34.563Z,82.17
2019-05-16T14:59:43.507Z,81.90
2019-05-16T15:02:51.540Z,81.84
2019-05-16T15:06:00.038Z,81.84
2019-05-16T15:09:09.564Z,81.31
2019-05-16T15:12:18.384Z,81.07
2019-05-16T15:15:28.125Z,81.07
2019-05-16T15:18:38.593Z,81.01
2019-05-16T15:21:47.870Z,82.82
2019-05-16T15:24:59.017Z,82.08
2019-05-16T15:28:07.495Z,81.78
2019-05-16T15:31:16.713Z,81.78
2019-05-16T15:34:29.845Z,80.77
2019-05-16T15:37:33.365Z,82.06
2019-05-16T15:40:41.714Z,82.18
2019-05-16T15:43:49.769Z,80.81
2019-05-16T15:46:59.830Z,81.04
2019-05-16T15:50:08.162Z,81.46
2019-05-16T15:53:17.761Z,82.12
2019-05-16T15:56:27.095Z,82.12
2019-05-16T15:59:37.604Z,81.15
2019-05-16T16:02:48.106Z,83.43
2019-05-16T16:05:56.047Z,83.00
2019-05-16T16:09:06.929Z,83.07
2019-05-16T16:12:16.959Z,82.46
2019-05-16T16:15:28.051Z,81.87
2019-05-16T16:18:37.661Z,81.87
2019-05-16T16:21:47.322Z,82.00
2019-05-16T16:24:57.492Z,81.12
2019-05-16T16:28:07.647Z,81.12
2019-05-16T16:31:16.909Z,80.62
2019-05-16T16:34:26.846Z,80.71
2019-05-16T16:37:37.714Z,82.38
2019-05-16T16:40:48.124Z,82.19
2019-05-16T16:43:57.058Z,82.62
2019-05-16T16:47:06.773Z,83.22
2019-05-16T16:50:17.398Z,83.87
2019-05-16T16:53:27.038Z,82.78
2019-05-16T16:56:37.084Z,82.31
2019-05-16T16:59:47.620Z,83.15
2019-05-16T17:03:03.338Z,82.91
2019-05-16T17:06:05.589Z,83.59
2019-05-16T17:09:14.057Z,83.95
2019-05-16T17:12:22.739Z,83.95
2019-05-16T17:15:30.649Z,83.62
2019-05-16T17:18:38.624Z,83.22
2019-05-16T17:22:01.830Z,83.77
2019-05-16T17:24:56.795Z,83.77
2019-05-16T17:28:07.557Z,83.79
2019-05-16T17:31:16.762Z,83.26
2019-05-16T17:34:26.733Z,83.26
2019-05-16T17:37:37.506Z,82.85
2019-05-16T17:40:47.712Z,82.60
2019-05-16T17:43:56.350Z,82.60
2019-05-16T17:47:07.754Z,82.43
2019-05-16T17:50:17.269Z,82.30
2019-05-16T17:53:26.911Z,82.74
2019-05-16T17:56:37.552Z,82.06
2019-05-16T17:59:48.008Z,81.49
2019-05-16T18:02:57.021Z,81.49
2019-05-16T18:06:08.638Z,81.05
2019-05-16T18:09:17.286Z,80.19
2019-05-16T18:12:27.693Z,81.41
2019-05-16T18:15:38.241Z,81.56
2019-05-16T18:18:49.623Z,81.68
2019-05-16T18:21:59.588Z,81.46
2019-05-16T18:25:11.966Z,81.51
2019-05-16T18:28:19.659Z,81.51
2019-05-16T18:31:32.193Z,81.61
2019-05-16T18:34:40.563Z,82.17
2019-05-16T18:37:48.912Z,82.94
2019-05-16T18:40:57.319Z,82.94
2019-05-16T18:44:08.278Z,82.86
2019-05-16T18:47:16.532Z,83.68
2019-05-16T18:50:26.562Z,84.49
2019-05-16T18:53:37.233Z,84.49
2019-05-16T18:56:47.111Z,84.25
2019-05-16T18:59:56.832Z,84.25
2019-05-16T19:03:07.957Z,84.24
2019-05-16T19:06:16.978Z,83.63
2019-05-16T19:09:26.803Z,83.58
2019-05-16T19:12:37.128Z,82.87
2019-05-16T19:15:49.321Z,82.74
2019-05-16T19:19:01.284Z,82.74
2019-05-16T19:22:10.930Z,82.84
2019-05-16T19:25:21.369Z,82.83
2019-05-16T19:28:32.492Z,82.75
2019-05-16T19:31:41.245Z,82.61
2019-05-16T19:34:50.256Z,82.58
2019-05-16T19:37:59.671Z,82.36
2019-05-16T19:41:08.601Z,82.65
2019-05-16T19:44:16.964Z,83.29
2019-05-16T19:47:34.937Z,83.29
2019-05-16T19:50:37.418Z,82.84
2019-05-16T19:53:47.094Z,83.14
2019-05-16T19:56:56.539Z,83.14
2019-05-16T20:00:05.965Z,82.83
2019-05-16T20:03:16.579Z,82.53
2019-05-16T20:06:23.471Z,82.65
2019-05-16T20:09:32.079Z,83.01
2019-05-16T20:12:42.338Z,82.85
2019-05-16T20:15:51.754Z,83.42
2019-05-16T20:19:02.658Z,83.74
2019-05-16T20:22:10.635Z,83.48
2019-05-16T20:25:18.638Z,83.04
2019-05-16T20:28:26.798Z,84.29
2019-05-16T20:31:36.881Z,84.29
2019-05-16T20:34:46.847Z,84.60
2019-05-16T20:37:55.261Z,84.07
2019-05-16T20:41:03.630Z,85.01
2019-05-16T20:44:11.848Z,84.57
2019-05-16T20:47:20.280Z,84.93
2019-05-16T20:50:28.458Z,85.20
2019-05-16T20:53:37.346Z,84.50
2019-05-16T20:56:46.453Z,83.87
2019-05-16T20:59:57.476Z,83.65
2019-05-16T21:03:06.861Z,83.71
2019-05-16T21:06:13.725Z,85.11
2019-05-16T21:09:21.650Z,84.58
2019-05-16T21:12:31.666Z,84.21
2019-05-16T21:15:39.510Z,85.46
2019-05-16T21:18:47.544Z,84.81
2019-05-16T21:21:56.612Z,84.78
2019-05-16T21:25:04.613Z,84.78
2019-05-16T21:28:12.697Z,84.21
2019-05-16T21:31:20.675Z,84.21
2019-05-16T21:34:28.938Z,85.49
2019-05-16T21:37:37.565Z,84.80
2019-05-16T21:40:47.501Z,84.38
2019-05-16T21:43:56.258Z,84.16
2019-05-16T21:47:06.497Z,83.81
2019-05-16T21:50:13.338Z,84.50
2019-05-16T21:53:22.651Z,85.23
2019-05-16T21:56:30.609Z,84.39
2019-05-16T21:59:38.580Z,83.74
2019-05-16T22:02:47.006Z,83.74
2019-05-16T22:05:57.629Z,84.83
2019-05-16T22:09:07.630Z,84.31
2019-05-16T22:12:17.549Z,84.15
2019-05-16T22:15:27.642Z,84.01
2019-05-16T22:18:38.487Z,83.88
2019-05-16T22:21:46.543Z,84.39
2019-05-16T22:24:57.074Z,85.18
2019-05-16T22:28:06.952Z,85.18
2019-05-16T22:31:13.481Z,84.15
2019-05-16T22:34:23.233Z,84.81
2019-05-16T22:37:32.577Z,85.67
2019-05-16T22:40:40.553Z,86.35
2019-05-16T22:43:48.915Z,86.70
2019-05-16T22:46:56.572Z,86.70
2019-05-16T22:50:04.563Z,86.18
2019-05-16T22:53:12.549Z,86.96
2019-05-16T22:56:21.008Z,85.95
2019-05-16T22:59:28.999Z,85.95
2019-05-16T23:02:36.822Z,86.83
2019-05-16T23:05:47.233Z,86.57
2019-05-16T23:08:56.265Z,86.90
2019-05-16T23:12:03.595Z,86.06
2019-05-16T23:15:10.358Z,85.87
2019-05-16T23:18:18.247Z,86.23
2019-05-16T23:21:27.615Z,85.21
2019-05-16T23:24:36.936Z,84.89
2019-05-16T23:27:47.424Z,84.92
2019-05-16T23:30:57.621Z,86.09
2019-05-16T23:34:07.168Z,85.62
2019-05-16T23:37:15.371Z,84.58
2019-05-16T23:40:23.548Z,84.22
2019-05-16T23:43:32.903Z,83.86
2019-05-16T23:46:40.646Z,83.86
2019-05-16T23:49:48.567Z,84.23
2019-05-16T23:52:56.622Z,85.30
2019-05-16T23:56:07.440Z,86.48
2019-05-16T23:59:17.125Z,86.48
